General Hazi Aslanov — UEJC — position and weather

sailwx.info

Track history (hours):
 
Tides and Currents Weather Stations Pressure Air Temp Water Temp Dewpoint Dewpoint Depression Visibility Wind Speed Wind Dir Waves Ship Positions

General Hazi Aslanov

Last reported at 2018-Jul-14 12:19 UTC. Time now 2018-Jul-17 09:26 UTC.
Position N 45°30' E 036°44'.

Length 139 m; draft 3.2 m.

Type: Tanker. MMSI: 273430870.

Date/timePositionNaut miles runAvg speedWind from/ knotsBaromVisibWave heightAir tempDewpointWater temp
2018-Jul-14 12:19N 45°30' E 036°44'2 5.6
2018-Jul-14 12:00N 45°29' E 036°43'3 5.7
2018-Jul-14 11:30N 45°26' E 036°42'3 5.6
2018-Jul-14 11:00N 45°23' E 036°41'3 5.1
2018-Jul-14 10:30N 45°21' E 036°40'3 5.1
2018-Jul-14 10:00N 45°20' E 036°36'7 0.4
2018-Jul-13 15:16N 45°15' E 036°29'0 0.0
2018-Jul-13 14:58N 45°15' E 036°29'0 0.0
2018-Jul-13 13:52N 45°14' E 036°29'0 0.0
2018-Jul-13 12:32N 45°15' E 036°29'0 0.1
2018-Jul-13 12:30N 45°15' E 036°29'2 3.8
2018-Jul-13 11:56N 45°13' E 036°28'3 6.2
2018-Jul-13 11:27N 45°10' E 036°29'132 5.1
2018-Jul-12 09:31N 44°02' E 033°49'0 6.1
2018-Jul-12 09:30N 44°02' E 033°49'3 6.2
2018-Jul-12 09:00N 44°01' E 033°45'4 6.1
2018-Jul-12 08:23N 43°59' E 033°40'150 6.2
2018-Jul-11 07:57N 43°33' E 030°15'5 6.2
2018-Jul-11 07:07N 43°32' E 030°08'1 6.1
2018-Jul-11 06:56N 43°32' E 030°06'3 6.2
2018-Jul-11 06:24N 43°31' E 030°02'2 6.1
2018-Jul-11 06:00N 43°31' E 029°59'3 6.1
2018-Jul-11 05:29N 43°30' E 029°54'  
2018-Jul-07 22:46N 43°52' E 032°44'2 7.1
2018-Jul-07 22:30N 43°53' E 032°46'3 7.0
2018-Jul-07 22:01N 43°53' E 032°51'4 7.0
2018-Jul-07 21:30N 43°54' E 032°56'5 7.0
2018-Jul-07 20:48N 43°55' E 033°03'2 7.0
2018-Jul-07 20:30N 43°55' E 033°06'4 7.0
2018-Jul-07 19:56N 43°56' E 033°11'3 6.9
2018-Jul-07 19:30N 43°56' E 033°15'4 6.9
2018-Jul-07 18:59N 43°57' E 033°20'3 7.1
2018-Jul-07 18:30N 43°57' E 033°25'4 7.1
2018-Jul-07 18:00N 43°58' E 033°30'4 7.2
2018-Jul-07 17:31N 43°59' E 033°34'6 7.1
2018-Jul-07 16:43N 43°60' E 033°42'2 7.2
2018-Jul-07 16:30N 44°00' E 033°44'4 7.1
2018-Jul-07 16:00N 44°02' E 033°49'5 7.2
2018-Jul-07 15:21N 44°03' E 033°55'3 7.2
2018-Jul-07 14:59N 44°04' E 033°58'3 7.0
2018-Jul-07 14:30N 44°05' E 034°03'3 6.9
2018-Jul-07 14:00N 44°07' E 034°07'118 5.0
2018-Jul-06 14:12N 45°08' E 036°29'1 5.8
2018-Jul-06 13:56N 45°10' E 036°28'3 6.0
2018-Jul-06 13:30N 45°12' E 036°28'3 5.9
2018-Jul-06 12:57N 45°16' E 036°28'3 5.5
2018-Jul-06 12:29N 45°18' E 036°29'3 5.8
2018-Jul-06 12:00N 45°19' E 036°33'3 5.8
2018-Jul-06 11:30N 45°20' E 036°37'3 5.3
2018-Jul-06 10:58N 45°21' E 036°40'  
Track history (hours):
 
Tides and Currents Weather Stations Pressure Air Temp Water Temp Dewpoint Dewpoint Depression Visibility Wind Speed Wind Dir Waves Ship Positions

General Hazi Aslanov

Last reported at 2018-Jul-14 12:19 UTC. Time now 2018-Jul-17 09:26 UTC.
Position N 45°30' E 036°44'.

Length 139 m; draft 3.2 m.

Type: Tanker. MMSI: 273430870.

Date/timePositionNaut miles runAvg speedWind from/ knotsBaromVisibWave heightAir tempDewpointWater temp
2018-Jul-14 12:19N 45°30' E 036°44'2 5.6
2018-Jul-14 12:00N 45°29' E 036°43'3 5.7
2018-Jul-14 11:30N 45°26' E 036°42'3 5.6
2018-Jul-14 11:00N 45°23' E 036°41'3 5.1
2018-Jul-14 10:30N 45°21' E 036°40'3 5.1
2018-Jul-14 10:00N 45°20' E 036°36'7 0.4
2018-Jul-13 15:16N 45°15' E 036°29'0 0.0
2018-Jul-13 14:58N 45°15' E 036°29'0 0.0
2018-Jul-13 13:52N 45°14' E 036°29'0 0.0
2018-Jul-13 12:32N 45°15' E 036°29'0 0.1
2018-Jul-13 12:30N 45°15' E 036°29'2 3.8
2018-Jul-13 11:56N 45°13' E 036°28'3 6.2
2018-Jul-13 11:27N 45°10' E 036°29'132 5.1
2018-Jul-12 09:31N 44°02' E 033°49'0 6.1
2018-Jul-12 09:30N 44°02' E 033°49'3 6.2
2018-Jul-12 09:00N 44°01' E 033°45'4 6.1
2018-Jul-12 08:23N 43°59' E 033°40'150 6.2
2018-Jul-11 07:57N 43°33' E 030°15'5 6.2
2018-Jul-11 07:07N 43°32' E 030°08'1 6.1
2018-Jul-11 06:56N 43°32' E 030°06'3 6.2
2018-Jul-11 06:24N 43°31' E 030°02'2 6.1
2018-Jul-11 06:00N 43°31' E 029°59'3 6.1
2018-Jul-11 05:29N 43°30' E 029°54'  
2018-Jul-07 22:46N 43°52' E 032°44'2 7.1
2018-Jul-07 22:30N 43°53' E 032°46'3 7.0
2018-Jul-07 22:01N 43°53' E 032°51'4 7.0
2018-Jul-07 21:30N 43°54' E 032°56'5 7.0
2018-Jul-07 20:48N 43°55' E 033°03'2 7.0
2018-Jul-07 20:30N 43°55' E 033°06'4 7.0
2018-Jul-07 19:56N 43°56' E 033°11'3 6.9
2018-Jul-07 19:30N 43°56' E 033°15'4 6.9
2018-Jul-07 18:59N 43°57' E 033°20'3 7.1
2018-Jul-07 18:30N 43°57' E 033°25'4 7.1
2018-Jul-07 18:00N 43°58' E 033°30'4 7.2
2018-Jul-07 17:31N 43°59' E 033°34'6 7.1
2018-Jul-07 16:43N 43°60' E 033°42'2 7.2
2018-Jul-07 16:30N 44°00' E 033°44'4 7.1
2018-Jul-07 16:00N 44°02' E 033°49'5 7.2
2018-Jul-07 15:21N 44°03' E 033°55'3 7.2
2018-Jul-07 14:59N 44°04' E 033°58'3 7.0
2018-Jul-07 14:30N 44°05' E 034°03'3 6.9
2018-Jul-07 14:00N 44°07' E 034°07'118 5.0
2018-Jul-06 14:12N 45°08' E 036°29'1 5.8
2018-Jul-06 13:56N 45°10' E 036°28'3 6.0
2018-Jul-06 13:30N 45°12' E 036°28'3 5.9
2018-Jul-06 12:57N 45°16' E 036°28'3 5.5
2018-Jul-06 12:29N 45°18' E 036°29'3 5.8
2018-Jul-06 12:00N 45°19' E 036°33'3 5.8
2018-Jul-06 11:30N 45°20' E 036°37'3 5.3
2018-Jul-06 10:58N 45°21' E 036°40'  

Dump ship's entire track history